createdAt,value
2023-07-16T00:02:07.000Z,2.13
2023-07-16T00:04:34.574Z,2.63
2023-07-16T00:07:02.679Z,1.92
2023-07-16T00:09:30.273Z,2.50
2023-07-16T00:11:58.374Z,1.80
2023-07-16T00:14:25.707Z,1.95
2023-07-16T00:16:53.026Z,1.95
2023-07-16T00:19:20.397Z,1.90
2023-07-16T00:21:47.756Z,1.77
2023-07-16T00:24:15.001Z,2.40
2023-07-16T00:26:42.287Z,2.15
2023-07-16T00:29:10.546Z,2.00
2023-07-16T00:31:37.832Z,2.20
2023-07-16T00:34:05.098Z,3.33
2023-07-16T00:36:32.454Z,2.25
2023-07-16T00:38:59.767Z,2.38
2023-07-16T00:41:27.097Z,2.75
2023-07-16T00:43:55.567Z,2.92
2023-07-16T00:46:23.442Z,3.07
2023-07-16T00:48:50.829Z,2.40
2023-07-16T00:51:19.508Z,2.28
2023-07-16T00:53:47.802Z,2.88
2023-07-16T00:56:18.960Z,3.08
2023-07-16T00:58:46.603Z,3.10
2023-07-16T01:01:14.584Z,2.55
2023-07-16T01:03:42.149Z,2.35
2023-07-16T01:06:19.533Z,2.20
2023-07-16T01:08:52.045Z,2.88
2023-07-16T01:11:20.100Z,2.75
2023-07-16T01:13:47.860Z,3.15
2023-07-16T01:16:22.689Z,3.10
2023-07-16T01:18:52.143Z,3.05
2023-07-16T01:21:24.863Z,3.08
2023-07-16T01:24:10.088Z,4.18
2023-07-16T01:27:01.695Z,2.83
2023-07-16T01:29:30.956Z,2.25
2023-07-16T01:32:00.974Z,2.58
2023-07-16T01:34:34.233Z,3.10
2023-07-16T01:37:03.711Z,2.63
2023-07-16T01:39:33.816Z,3.30
2023-07-16T01:42:01.417Z,2.42
2023-07-16T01:44:28.755Z,3.42
2023-07-16T01:47:32.561Z,2.78
2023-07-16T01:49:59.833Z,3.40
2023-07-16T01:52:28.357Z,2.97
2023-07-16T01:54:57.901Z,3.20
2023-07-16T01:57:25.146Z,2.90
2023-07-16T01:59:53.295Z,3.00
2023-07-16T02:02:20.712Z,3.03
2023-07-16T02:04:47.998Z,2.45
2023-07-16T02:07:15.275Z,2.35
2023-07-16T02:09:42.595Z,3.92
2023-07-16T02:12:09.900Z,4.28
2023-07-16T02:14:37.308Z,2.85
2023-07-16T02:17:05.103Z,3.25
2023-07-16T02:19:32.394Z,2.45
2023-07-16T02:21:59.652Z,3.42
2023-07-16T02:24:29.395Z,4.72
2023-07-16T02:26:56.723Z,3.20
2023-07-16T02:29:24.072Z,3.88
2023-07-16T02:31:51.376Z,3.63
2023-07-16T02:34:18.658Z,3.92
2023-07-16T02:36:45.929Z,4.38
2023-07-16T02:39:13.265Z,4.17
2023-07-16T02:41:40.537Z,3.63
2023-07-16T02:44:09.358Z,4.03
2023-07-16T02:46:36.722Z,4.10
2023-07-16T02:49:04.752Z,4.22
2023-07-16T02:51:32.162Z,5.10
2023-07-16T02:53:59.506Z,5.20
2023-07-16T02:56:26.841Z,4.72
2023-07-16T02:58:54.151Z,5.20
2023-07-16T03:01:21.857Z,4.03
2023-07-16T03:03:49.253Z,4.43
2023-07-16T03:06:21.117Z,3.85
2023-07-16T03:08:51.994Z,4.13
2023-07-16T03:11:19.852Z,4.32
2023-07-16T03:13:47.132Z,5.63
2023-07-16T03:16:14.755Z,4.40
2023-07-16T03:18:42.342Z,4.13
2023-07-16T03:21:09.634Z,6.30
2023-07-16T03:23:37.449Z,5.05
2023-07-16T03:26:04.722Z,4.30
2023-07-16T03:28:33.208Z,4.13
2023-07-16T03:31:02.916Z,4.93
2023-07-16T03:33:31.392Z,5.22
2023-07-16T03:35:58.723Z,4.63
2023-07-16T03:38:26.054Z,3.70
2023-07-16T03:40:53.748Z,3.30
2023-07-16T03:43:21.235Z,4.65
2023-07-16T03:45:50.603Z,4.68
2023-07-16T03:48:18.031Z,3.83
2023-07-16T03:50:45.530Z,4.68
2023-07-16T03:53:12.815Z,3.47
2023-07-16T03:55:40.100Z,3.78
2023-07-16T03:58:07.705Z,4.10
2023-07-16T04:00:35.021Z,3.60
2023-07-16T04:03:02.320Z,3.60
2023-07-16T04:05:29.659Z,3.65
2023-07-16T04:07:56.926Z,4.15
2023-07-16T04:10:24.219Z,3.58
2023-07-16T04:12:51.534Z,3.42
2023-07-16T04:15:18.848Z,2.97
2023-07-16T04:17:46.147Z,3.10
2023-07-16T04:20:13.599Z,3.58
2023-07-16T04:22:41.216Z,3.17
2023-07-16T04:25:09.071Z,3.22
2023-07-16T04:27:37.134Z,3.30
2023-07-16T04:30:04.942Z,4.30
2023-07-16T04:32:32.245Z,2.95
2023-07-16T04:34:59.729Z,4.07
2023-07-16T04:37:27.778Z,3.63
2023-07-16T04:39:55.070Z,3.30
2023-07-16T04:42:22.388Z,4.63
2023-07-16T04:44:49.680Z,3.50
2023-07-16T04:47:17.015Z,4.82
2023-07-16T04:49:44.513Z,4.25
2023-07-16T04:52:11.776Z,4.43
2023-07-16T04:54:39.434Z,4.67
2023-07-16T04:57:10.008Z,3.65
2023-07-16T04:59:37.233Z,4.28
2023-07-16T05:02:06.543Z,4.90
2023-07-16T05:04:37.177Z,3.13
2023-07-16T05:07:05.301Z,3.77
2023-07-16T05:09:32.585Z,4.47
2023-07-16T05:11:59.980Z,4.20
2023-07-16T05:14:29.455Z,3.92
2023-07-16T05:16:57.346Z,4.50
2023-07-16T05:19:24.894Z,4.40
2023-07-16T05:21:52.212Z,4.20
2023-07-16T05:24:19.512Z,4.05
2023-07-16T05:26:46.850Z,4.07
2023-07-16T05:29:14.123Z,4.75
2023-07-16T05:31:43.470Z,4.72
2023-07-16T05:34:10.798Z,3.67
2023-07-16T05:36:38.067Z,5.45
2023-07-16T05:39:05.355Z,4.15
2023-07-16T05:41:32.619Z,3.33
2023-07-16T05:43:59.890Z,4.63
2023-07-16T05:46:27.222Z,3.72
2023-07-16T05:48:54.521Z,3.88
2023-07-16T05:51:21.817Z,4.85
2023-07-16T05:53:49.190Z,3.53
2023-07-16T05:56:16.720Z,4.13
2023-07-16T05:58:44.132Z,3.70
2023-07-16T06:01:11.654Z,3.90
2023-07-16T06:03:39.010Z,4.35
2023-07-16T06:06:06.309Z,3.97
2023-07-16T06:08:33.880Z,4.30
2023-07-16T06:11:01.153Z,4.70
2023-07-16T06:13:28.405Z,3.17
2023-07-16T06:15:55.740Z,3.75
2023-07-16T06:18:23.057Z,3.83
2023-07-16T06:20:51.626Z,4.10
2023-07-16T06:23:18.893Z,4.20
2023-07-16T06:25:47.929Z,4.53
2023-07-16T06:28:16.091Z,4.15
2023-07-16T06:30:43.364Z,3.83
2023-07-16T06:33:10.763Z,4.13
2023-07-16T06:35:38.366Z,3.65
2023-07-16T06:38:05.626Z,3.45
2023-07-16T06:40:32.918Z,4.05
2023-07-16T06:43:00.209Z,3.58
2023-07-16T06:45:27.490Z,3.70
2023-07-16T06:47:54.798Z,3.95
2023-07-16T06:50:22.110Z,4.30
2023-07-16T06:52:49.366Z,2.92
2023-07-16T06:55:16.734Z,4.35
2023-07-16T06:57:44.032Z,3.33
2023-07-16T07:00:12.279Z,3.92
2023-07-16T07:02:39.665Z,3.80
2023-07-16T07:05:07.346Z,3.40
2023-07-16T07:07:34.851Z,3.90
2023-07-16T07:10:02.436Z,5.30
2023-07-16T07:12:29.739Z,4.75
2023-07-16T07:14:57.014Z,3.92
2023-07-16T07:17:24.266Z,4.15
2023-07-16T07:19:51.499Z,3.50
2023-07-16T07:22:20.359Z,4.17
2023-07-16T07:24:49.117Z,3.65
2023-07-16T07:27:16.375Z,3.88
2023-07-16T07:29:43.667Z,4.72
2023-07-16T07:32:11.059Z,3.95
2023-07-16T07:34:39.948Z,3.20
2023-07-16T07:37:07.440Z,3.95
2023-07-16T07:39:34.745Z,4.10
2023-07-16T07:42:02.124Z,4.00
2023-07-16T07:44:29.377Z,4.72
2023-07-16T07:46:56.689Z,5.07
2023-07-16T07:49:24.023Z,4.35
2023-07-16T07:51:51.372Z,3.92
2023-07-16T07:54:18.694Z,3.15
2023-07-16T07:56:47.688Z,4.30
2023-07-16T07:59:15.060Z,4.37
2023-07-16T08:01:42.323Z,3.90
2023-07-16T08:04:09.680Z,3.42
2023-07-16T08:06:37.148Z,4.53
2023-07-16T08:09:04.532Z,4.20
2023-07-16T08:11:31.801Z,5.00
2023-07-16T08:13:59.003Z,3.83
2023-07-16T08:16:26.257Z,4.00
2023-07-16T08:18:53.485Z,4.70
2023-07-16T08:21:21.360Z,4.38
2023-07-16T08:23:50.302Z,4.20
2023-07-16T08:26:18.514Z,4.60
2023-07-16T08:28:46.434Z,4.63
2023-07-16T08:31:14.036Z,4.68
2023-07-16T08:33:41.540Z,3.75
2023-07-16T08:36:10.207Z,4.97
2023-07-16T08:38:37.420Z,4.57
2023-07-16T08:41:04.720Z,3.70
2023-07-16T08:43:34.626Z,3.65
2023-07-16T08:46:02.572Z,4.43
2023-07-16T08:48:30.346Z,4.07
2023-07-16T08:51:02.138Z,4.75
2023-07-16T08:53:30.526Z,5.00
2023-07-16T08:55:58.800Z,5.25
2023-07-16T08:58:26.088Z,5.50
2023-07-16T09:00:53.958Z,5.27
2023-07-16T09:03:21.343Z,5.53
2023-07-16T09:05:48.888Z,5.25
2023-07-16T09:08:19.231Z,3.92
2023-07-16T09:10:57.710Z,4.45
2023-07-16T09:13:29.284Z,4.63
2023-07-16T09:15:58.262Z,3.60
2023-07-16T09:18:28.024Z,4.30
2023-07-16T09:21:07.035Z,3.22
2023-07-16T09:23:35.018Z,4.32
2023-07-16T09:26:04.294Z,4.20
2023-07-16T09:28:32.963Z,3.58
2023-07-16T09:31:07.564Z,3.90
2023-07-16T09:33:35.587Z,4.68
2023-07-16T09:36:04.564Z,4.03
2023-07-16T09:38:34.201Z,4.33
2023-07-16T09:41:03.927Z,4.68
2023-07-16T09:43:31.223Z,3.67
2023-07-16T09:45:58.604Z,4.20
2023-07-16T09:48:26.020Z,4.68
2023-07-16T09:50:54.925Z,4.37
2023-07-16T09:53:23.543Z,4.60
2023-07-16T09:55:53.594Z,3.92
2023-07-16T09:58:23.797Z,4.53
2023-07-16T10:00:51.770Z,5.05
2023-07-16T10:03:19.350Z,4.47
2023-07-16T10:05:46.858Z,4.32
2023-07-16T10:08:19.033Z,4.10
2023-07-16T10:10:53.374Z,3.50
2023-07-16T10:13:24.369Z,3.58
2023-07-16T10:15:56.447Z,4.00
2023-07-16T10:18:35.768Z,4.20
2023-07-16T10:21:07.174Z,4.85
2023-07-16T10:23:42.826Z,3.75
2023-07-16T10:26:18.257Z,4.20
2023-07-16T10:28:47.043Z,4.33
2023-07-16T10:31:26.110Z,4.85
2023-07-16T10:34:06.033Z,4.15
2023-07-16T10:36:42.930Z,4.80
2023-07-16T10:39:10.373Z,4.35
2023-07-16T10:41:38.427Z,3.80
2023-07-16T10:44:08.747Z,4.57
2023-07-16T10:46:37.097Z,4.75
2023-07-16T10:49:04.524Z,4.65
2023-07-16T10:51:31.791Z,4.80
2023-07-16T10:53:59.307Z,3.73
2023-07-16T10:56:26.960Z,3.70
2023-07-16T10:58:54.512Z,3.90
2023-07-16T11:01:21.921Z,3.90
2023-07-16T11:03:49.625Z,4.18
2023-07-16T11:06:20.213Z,4.20
2023-07-16T11:08:47.960Z,2.95
2023-07-16T11:11:15.244Z,2.53
2023-07-16T11:13:42.561Z,2.90
2023-07-16T11:16:11.114Z,2.83
2023-07-16T11:18:38.616Z,2.43
2023-07-16T11:21:06.206Z,3.70
2023-07-16T11:23:37.206Z,2.67
2023-07-16T11:26:05.322Z,2.80
2023-07-16T11:28:43.330Z,3.70
2023-07-16T11:31:16.185Z,3.20
2023-07-16T11:33:47.114Z,2.70
2023-07-16T11:36:14.961Z,2.80
2023-07-16T11:39:11.511Z,3.47
2023-07-16T11:41:39.534Z,2.88
2023-07-16T11:44:09.171Z,3.13
2023-07-16T11:46:36.476Z,2.70
2023-07-16T11:49:04.866Z,2.63
2023-07-16T11:51:34.949Z,3.95
2023-07-16T11:54:02.322Z,2.83
2023-07-16T11:56:29.653Z,3.50
2023-07-16T11:58:56.905Z,3.47
2023-07-16T12:01:24.195Z,3.28
2023-07-16T12:03:51.537Z,2.75
2023-07-16T12:06:19.104Z,3.05
2023-07-16T12:08:46.811Z,2.60
2023-07-16T12:11:14.158Z,3.20
2023-07-16T12:13:41.413Z,2.65
2023-07-16T12:16:08.817Z,2.42
2023-07-16T12:18:36.079Z,2.00
2023-07-16T12:21:03.684Z,2.60
2023-07-16T12:23:31.115Z,2.40
2023-07-16T12:25:58.458Z,2.67
2023-07-16T12:28:26.074Z,1.95
2023-07-16T12:30:53.543Z,2.60
2023-07-16T12:33:21.326Z,2.42
2023-07-16T12:35:48.796Z,2.93
2023-07-16T12:38:16.085Z,2.60
2023-07-16T12:40:43.580Z,2.90
2023-07-16T12:43:10.855Z,2.80
2023-07-16T12:45:38.143Z,3.13
2023-07-16T12:48:05.753Z,3.03
2023-07-16T12:50:33.142Z,3.45
2023-07-16T12:53:00.512Z,3.05
2023-07-16T12:55:27.761Z,3.60
2023-07-16T12:57:55.089Z,3.58
2023-07-16T13:00:22.364Z,3.00
2023-07-16T13:02:49.690Z,3.15
2023-07-16T13:05:17.047Z,2.92
2023-07-16T13:07:54.711Z,3.20
2023-07-16T13:10:23.379Z,2.70
2023-07-16T13:12:51.576Z,3.23
2023-07-16T13:15:18.915Z,3.08
2023-07-16T13:17:46.315Z,3.90
2023-07-16T13:20:13.646Z,3.05
2023-07-16T13:22:41.246Z,3.58
2023-07-16T13:25:08.886Z,3.50
2023-07-16T13:27:36.208Z,3.00
2023-07-16T13:30:03.665Z,3.33
2023-07-16T13:32:30.982Z,2.50
2023-07-16T13:34:58.495Z,3.38
2023-07-16T13:37:25.944Z,2.70
2023-07-16T13:39:53.249Z,2.72
2023-07-16T13:42:23.601Z,2.45
2023-07-16T13:44:51.301Z,2.92
2023-07-16T13:47:18.759Z,2.92
2023-07-16T13:49:46.122Z,2.87
2023-07-16T13:52:13.495Z,2.78
2023-07-16T13:54:42.035Z,3.33
2023-07-16T13:57:10.324Z,3.70
2023-07-16T13:59:38.138Z,3.33
2023-07-16T14:02:05.771Z,3.17
2023-07-16T14:04:33.586Z,2.67
2023-07-16T14:07:00.917Z,3.42
2023-07-16T14:09:28.231Z,3.40
2023-07-16T14:11:55.597Z,3.30
2023-07-16T14:14:23.688Z,2.90
2023-07-16T14:16:51.256Z,3.50
2023-07-16T14:19:18.609Z,2.50
2023-07-16T14:21:45.910Z,2.67
2023-07-16T14:24:13.208Z,2.83
2023-07-16T14:26:40.489Z,3.87
2023-07-16T14:29:07.896Z,3.60
2023-07-16T14:31:35.207Z,3.45
2023-07-16T14:34:03.090Z,3.25
2023-07-16T14:36:30.365Z,3.35
2023-07-16T14:39:00.069Z,3.13
2023-07-16T14:41:27.342Z,2.50
2023-07-16T14:43:57.400Z,2.42
2023-07-16T14:46:26.446Z,3.45
2023-07-16T14:48:56.960Z,3.30
2023-07-16T14:51:24.404Z,3.33
2023-07-16T14:53:53.617Z,3.38
2023-07-16T14:56:20.923Z,3.42
2023-07-16T14:58:48.371Z,3.00
2023-07-16T15:01:15.782Z,3.00
2023-07-16T15:03:43.152Z,2.73
2023-07-16T15:06:10.768Z,3.05
2023-07-16T15:08:38.098Z,3.47
2023-07-16T15:11:05.393Z,3.10
2023-07-16T15:13:32.718Z,2.42
2023-07-16T15:16:00.083Z,3.70
2023-07-16T15:18:28.265Z,3.42
2023-07-16T15:21:02.555Z,2.58
2023-07-16T15:23:30.730Z,4.07
2023-07-16T15:26:05.683Z,3.20
2023-07-16T15:28:35.350Z,4.50
2023-07-16T15:31:03.182Z,3.97
2023-07-16T15:33:31.157Z,3.70
2023-07-16T15:35:59.012Z,3.60
2023-07-16T15:38:26.434Z,3.25
2023-07-16T15:40:54.225Z,3.90
2023-07-16T15:43:21.598Z,3.10
2023-07-16T15:45:49.168Z,3.13
2023-07-16T15:48:16.506Z,3.38
2023-07-16T15:50:43.864Z,3.85
2023-07-16T15:53:11.328Z,2.60
2023-07-16T15:55:38.969Z,3.97
2023-07-16T15:58:06.247Z,3.38
2023-07-16T16:00:33.505Z,2.63
2023-07-16T16:03:02.777Z,3.33
2023-07-16T16:05:32.142Z,4.03
2023-07-16T16:08:14.102Z,3.88
2023-07-16T16:10:42.618Z,3.33
2023-07-16T16:13:10.056Z,3.05
2023-07-16T16:15:37.461Z,2.78
2023-07-16T16:18:04.996Z,2.30
2023-07-16T16:20:32.691Z,2.35
2023-07-16T16:23:00.526Z,3.05
2023-07-16T16:25:33.710Z,2.83
2023-07-16T16:28:06.550Z,3.20
2023-07-16T16:30:35.422Z,3.17
2023-07-16T16:33:06.660Z,3.38
2023-07-16T16:35:37.237Z,3.10
2023-07-16T16:38:04.937Z,3.63
2023-07-16T16:40:33.184Z,3.33
2023-07-16T16:43:00.603Z,3.17
2023-07-16T16:45:27.980Z,2.40
2023-07-16T16:47:55.836Z,3.00
2023-07-16T16:50:23.463Z,2.72
2023-07-16T16:52:52.336Z,3.58
2023-07-16T16:55:19.721Z,2.63
2023-07-16T16:57:47.040Z,2.63
2023-07-16T17:00:14.491Z,2.58
2023-07-16T17:02:42.407Z,2.40
2023-07-16T17:05:10.870Z,2.70
2023-07-16T17:07:38.329Z,2.60
2023-07-16T17:10:06.614Z,2.15
2023-07-16T17:12:34.022Z,2.47
2023-07-16T17:15:01.302Z,2.30
2023-07-16T17:17:28.785Z,2.58
2023-07-16T17:19:59.152Z,2.47
2023-07-16T17:22:27.915Z,2.25
2023-07-16T17:24:55.462Z,2.45
2023-07-16T17:27:22.724Z,2.45
2023-07-16T17:29:50.921Z,2.20
2023-07-16T17:32:18.190Z,1.90
2023-07-16T17:34:45.518Z,2.45
2023-07-16T17:37:12.852Z,2.95
2023-07-16T17:39:40.245Z,2.92
2023-07-16T17:42:09.837Z,2.38
2023-07-16T17:44:37.574Z,2.40
2023-07-16T17:47:05.237Z,2.60
2023-07-16T17:49:32.685Z,2.50
2023-07-16T17:52:00.092Z,1.88
2023-07-16T17:54:27.426Z,1.90
2023-07-16T17:56:55.053Z,2.60
2023-07-16T17:59:23.392Z,2.25
2023-07-16T18:01:51.733Z,2.88
2023-07-16T18:04:20.197Z,2.28
2023-07-16T18:06:47.997Z,2.53
2023-07-16T18:09:15.850Z,2.93
2023-07-16T18:11:45.177Z,2.42
2023-07-16T18:14:15.166Z,2.03
2023-07-16T18:16:45.056Z,2.33
2023-07-16T18:19:13.253Z,2.05
2023-07-16T18:21:48.854Z,2.60
2023-07-16T18:24:23.104Z,1.63
2023-07-16T18:26:50.373Z,2.08
2023-07-16T18:29:17.643Z,2.20
2023-07-16T18:31:44.937Z,2.45
2023-07-16T18:34:14.518Z,2.53
2023-07-16T18:36:41.802Z,2.28
2023-07-16T18:39:10.125Z,2.42
2023-07-16T18:41:37.401Z,2.22
2023-07-16T18:44:05.506Z,2.92
2023-07-16T18:46:34.618Z,2.60
2023-07-16T18:49:02.038Z,2.40
2023-07-16T18:51:29.261Z,2.08
2023-07-16T18:53:56.555Z,2.20
2023-07-16T18:56:23.823Z,1.98
2023-07-16T18:58:51.170Z,2.37
2023-07-16T19:01:18.479Z,2.22
2023-07-16T19:03:46.828Z,2.25
2023-07-16T19:06:14.302Z,2.15
2023-07-16T19:08:41.724Z,2.17
2023-07-16T19:11:09.058Z,2.23
2023-07-16T19:13:36.488Z,1.95
2023-07-16T19:16:04.002Z,1.80
2023-07-16T19:18:33.186Z,2.20
2023-07-16T19:21:00.495Z,1.95
2023-07-16T19:23:29.168Z,1.83
2023-07-16T19:25:56.477Z,1.85
2023-07-16T19:28:23.907Z,2.42
2023-07-16T19:30:51.245Z,2.42
2023-07-16T19:33:19.472Z,2.42
2023-07-16T19:35:46.751Z,2.20
2023-07-16T19:38:14.270Z,1.90
2023-07-16T19:40:47.259Z,1.75
2023-07-16T19:43:16.832Z,1.95
2023-07-16T19:45:44.674Z,2.20
2023-07-16T19:48:12.065Z,2.20
2023-07-16T19:50:39.606Z,2.20
2023-07-16T19:53:06.959Z,2.22
2023-07-16T19:55:37.670Z,2.42
2023-07-16T19:58:05.193Z,2.17
2023-07-16T20:00:32.417Z,1.83
2023-07-16T20:02:59.741Z,2.67
2023-07-16T20:05:27.113Z,2.08
2023-07-16T20:07:55.129Z,1.90
2023-07-16T20:10:23.108Z,2.45
2023-07-16T20:12:51.378Z,2.43
2023-07-16T20:15:19.373Z,2.58
2023-07-16T20:17:47.075Z,2.22
2023-07-16T20:20:15.776Z,2.47
2023-07-16T20:22:43.147Z,2.47
2023-07-16T20:25:13.167Z,1.80
2023-07-16T20:27:45.150Z,2.58
2023-07-16T20:30:12.790Z,2.30
2023-07-16T20:32:42.066Z,2.05
2023-07-16T20:35:11.971Z,2.00
2023-07-16T20:37:39.563Z,3.60
2023-07-16T20:40:12.535Z,4.50
2023-07-16T20:42:41.684Z,3.75
2023-07-16T20:45:22.767Z,3.40
2023-07-16T20:47:56.009Z,3.40
2023-07-16T20:50:28.163Z,3.30
2023-07-16T20:52:57.243Z,2.50
2023-07-16T20:55:25.741Z,2.20
2023-07-16T20:57:54.295Z,2.78
2023-07-16T21:00:27.632Z,2.63
2023-07-16T21:02:58.386Z,2.60
2023-07-16T21:05:27.576Z,3.22
2023-07-16T21:07:55.475Z,2.60
2023-07-16T21:10:25.586Z,5.25
2023-07-16T21:12:55.539Z,6.00
2023-07-16T21:15:24.107Z,4.53
2023-07-16T21:17:52.171Z,4.07
2023-07-16T21:20:20.148Z,3.42
2023-07-16T21:22:47.878Z,4.90
2023-07-16T21:25:15.309Z,3.80
2023-07-16T21:27:49.498Z,3.17
2023-07-16T21:30:17.360Z,3.25
2023-07-16T21:32:45.636Z,2.75
2023-07-16T21:35:15.826Z,1.88
2023-07-16T21:37:43.376Z,2.50
2023-07-16T21:40:11.510Z,3.40
2023-07-16T21:42:39.545Z,2.47
2023-07-16T21:45:07.575Z,3.17
2023-07-16T21:47:34.880Z,1.73
2023-07-16T21:50:02.315Z,2.58
2023-07-16T21:52:29.653Z,2.97
2023-07-16T21:54:57.086Z,2.08
2023-07-16T21:57:24.490Z,2.70
2023-07-16T21:59:51.815Z,2.30
2023-07-16T22:02:19.195Z,1.67
2023-07-16T22:04:46.520Z,2.40
2023-07-16T22:07:13.831Z,2.08
2023-07-16T22:09:41.135Z,2.22
2023-07-16T22:12:09.008Z,2.88
2023-07-16T22:14:36.412Z,2.90
2023-07-16T22:17:03.789Z,2.80
2023-07-16T22:19:32.964Z,2.17
2023-07-16T22:22:01.835Z,3.08
2023-07-16T22:24:29.380Z,2.75
2023-07-16T22:26:57.869Z,2.35
2023-07-16T22:29:25.316Z,2.80
2023-07-16T22:31:52.792Z,2.60
2023-07-16T22:34:21.354Z,1.80
2023-07-16T22:36:49.999Z,2.17
2023-07-16T22:39:17.533Z,2.47
2023-07-16T22:41:44.872Z,2.58
2023-07-16T22:44:12.187Z,2.90
2023-07-16T22:46:39.519Z,2.30
2023-07-16T22:49:07.863Z,2.08
2023-07-16T22:51:35.374Z,1.90
2023-07-16T22:54:04.117Z,2.75
2023-07-16T22:56:31.570Z,1.92
2023-07-16T22:58:59.157Z,2.30
2023-07-16T23:01:26.657Z,2.45
2023-07-16T23:03:54.041Z,2.42
2023-07-16T23:06:21.402Z,2.22
2023-07-16T23:08:48.707Z,1.88
2023-07-16T23:11:16.419Z,2.55
2023-07-16T23:13:43.906Z,1.80
2023-07-16T23:16:12.125Z,2.05
2023-07-16T23:18:39.480Z,2.80
2023-07-16T23:21:08.406Z,2.50
2023-07-16T23:23:37.355Z,2.65
2023-07-16T23:26:05.159Z,2.88
2023-07-16T23:28:33.198Z,2.10
2023-07-16T23:31:00.535Z,2.47
2023-07-16T23:33:28.431Z,1.98
2023-07-16T23:35:57.094Z,2.08
2023-07-16T23:38:24.508Z,2.00
2023-07-16T23:40:51.866Z,2.33
2023-07-16T23:43:19.152Z,1.85
2023-07-16T23:45:46.387Z,2.42
2023-07-16T23:48:13.713Z,2.53
2023-07-16T23:50:41.891Z,2.20
2023-07-16T23:53:09.222Z,2.42
2023-07-16T23:55:36.555Z,2.40
2023-07-16T23:58:05.637Z,2.50
